Time;durP1;ratioP1;P1;durP2;ratioP2;P2;SDS_P1;SDS_P2;PMS_P1;PMS_P2;Temp;Humidity;BMP_temperature;BMP_pressure;BME280_temperature;BME280_humidity;BME280_pressure;Samples;Min_cycle;Max_cycle;Signal;HPM_P1;HPM_P2
2021/08/24 00:01:46;;;;;;;13.43;9.08;;;;;;;15.98;100.00;101242.84;1675139;84;21122;-85
2021/08/24 00:04:14;;;;;;;15.40;9.00;;;;;;;15.99;100.00;101244.97;1682745;83;23261;-86
2021/08/24 00:06:42;;;;;;;11.00;8.60;;;;;;;15.96;100.00;101240.83;1698044;83;21445;-86
2021/08/24 00:09:10;;;;;;;10.18;8.75;;;;;;;15.93;100.00;101239.31;1670426;83;21979;-86
2021/08/24 00:11:37;;;;;;;11.25;8.75;;;;;;;15.92;100.00;101242.05;1695529;83;21059;-87
2021/08/24 00:14:08;;;;;;;11.30;8.90;;;;;;;15.92;100.00;101240.27;1668184;83;21070;-86
2021/08/24 00:16:35;;;;;;;11.90;8.50;;;;;;;15.93;100.00;101244.56;1675020;83;21125;-85
2021/08/24 00:19:03;;;;;;;11.18;9.08;;;;;;;15.94;100.00;101249.31;1669432;83;21055;-88
2021/08/24 00:21:30;;;;;;;13.78;8.70;;;;;;;15.95;100.00;101244.42;1674596;83;21633;-85
2021/08/24 00:23:58;;;;;;;15.28;9.10;;;;;;;15.96;100.00;101248.70;1665241;83;21578;-86
2021/08/24 00:26:25;;;;;;;12.20;8.18;;;;;;;15.92;100.00;101240.73;1677932;83;21055;-88
2021/08/24 00:28:52;;;;;;;13.45;8.45;;;;;;;15.88;100.00;101240.17;1667763;83;21101;-87
2021/08/24 00:31:19;;;;;;;11.38;8.43;;;;;;;15.83;100.00;101239.77;1672550;83;21063;-87
2021/08/24 00:33:46;;;;;;;10.28;8.68;;;;;;;15.78;100.00;101244.06;1699310;84;21529;-85
2021/08/24 00:36:15;;;;;;;15.28;9.38;;;;;;;15.77;100.00;101248.15;1672321;83;21047;-87
2021/08/24 00:38:43;;;;;;;14.35;9.08;;;;;;;15.76;100.00;101245.98;1632731;84;21799;-86
2021/08/24 00:41:11;;;;;;;15.20;9.43;;;;;;;15.77;100.00;101250.28;1643071;85;22062;-87
2021/08/24 00:43:41;;;;;;;13.55;9.18;;;;;;;15.78;100.00;101246.70;1659352;84;21075;-85
2021/08/24 00:46:22;;;;;;;10.63;9.10;;;;;;;15.79;100.00;101247.51;1665040;83;21003;-85
2021/08/24 00:48:51;;;;;;;11.40;9.48;;;;;;;15.81;100.00;101247.40;1658962;83;20975;-86
2021/08/24 00:51:22;;;;;;;14.28;9.90;;;;;;;15.78;100.00;101246.70;1670315;83;20987;-86
2021/08/24 00:53:50;;;;;;;13.20;9.47;;;;;;;15.73;100.00;101241.48;1695262;83;21154;-87
2021/08/24 00:56:17;;;;;;;12.23;9.20;;;;;;;15.66;100.00;101229.87;1700770;84;21035;-85
2021/08/24 00:58:44;;;;;;;12.05;9.48;;;;;;;15.58;100.00;101234.48;1701165;84;21621;-85
2021/08/24 01:01:13;;;;;;;11.93;9.13;;;;;;;15.50;100.00;101227.27;1689346;83;21133;-85
2021/08/24 01:03:46;;;;;;;10.80;8.98;;;;;;;15.44;100.00;101233.05;1664209;83;21069;-86
2021/08/24 01:06:41;;;;;;;14.98;9.55;;;;;;;15.37;100.00;101237.16;1680569;83;21215;-86
2021/08/24 01:09:38;;;;;;;21.15;10.08;;;;;;;15.30;100.00;101232.91;1680628;83;21022;-85
2021/08/24 01:12:14;;;;;;;22.45;11.38;;;;;;;15.25;100.00;101234.61;1704673;83;21122;-86
2021/08/24 01:15:11;;;;;;;18.82;10.68;;;;;;;15.22;100.00;101235.36;1692742;83;21022;-85
2021/08/24 01:17:58;;;;;;;15.68;10.65;;;;;;;15.21;100.00;101235.00;1687152;83;21007;-86
2021/08/24 01:20:34;;;;;;;20.65;10.35;;;;;;;15.23;100.00;101231.78;1700105;83;21143;-86
2021/08/24 01:23:23;;;;;;;14.65;9.15;;;;;;;15.25;100.00;101235.11;1709241;83;21149;-85
2021/08/24 01:26:07;;;;;;;12.75;8.55;;;;;;;15.28;100.00;101228.27;1705937;82;21620;-86
2021/08/24 01:28:51;;;;;;;17.57;9.30;;;;;;;15.34;100.00;101229.55;1707987;83;21221;-86
2021/08/24 01:32:03;;;;;;;21.48;9.93;;;;;;;15.38;100.00;101230.47;1702051;83;20966;-88
2021/08/24 01:35:18;;;;;;;20.40;10.10;;;;;;;15.42;100.00;101229.22;1711588;83;21450;-86
2021/08/24 01:38:08;;;;;;;17.52;8.85;;;;;;;15.48;100.00;101229.18;1703897;83;21096;-90
2021/08/24 01:40:47;;;;;;;17.73;9.28;;;;;;;15.52;100.00;101230.59;1671296;83;21069;-90
2021/08/24 01:43:19;;;;;;;17.35;9.18;;;;;;;15.55;100.00;101232.12;1654649;84;21695;-88
2021/08/24 01:45:51;;;;;;;15.58;9.03;;;;;;;15.55;100.00;101230.30;1655812;84;21121;-88
2021/08/24 01:48:28;;;;;;;16.75;8.75;;;;;;;15.55;100.00;101227.69;1698232;83;21231;-90
2021/08/24 01:51:04;;;;;;;22.45;8.48;;;;;;;15.53;100.00;101228.32;1692783;83;21104;-88
2021/08/24 01:53:42;;;;;;;16.55;8.38;;;;;;;15.51;100.00;101228.08;1670668;83;21533;-91
2021/08/24 01:56:18;;;;;;;17.77;8.53;;;;;;;15.49;100.00;101223.47;1694466;83;20991;-85
2021/08/24 01:58:53;;;;;;;20.85;8.53;;;;;;;15.47;100.00;101232.77;1670304;82;21101;-85
2021/08/24 02:01:26;;;;;;;15.68;9.45;;;;;;;15.46;100.00;101234.57;1683870;83;21195;-86
2021/08/24 02:03:56;;;;;;;20.37;9.95;;;;;;;15.46;100.00;101235.06;1678908;83;21058;-84
2021/08/24 02:06:41;;;;;;;18.37;9.03;;;;;;;15.44;100.00;101236.48;1674919;83;21066;-87
2021/08/24 02:09:30;;;;;;;14.87;7.75;;;;;;;15.44;100.00;101235.67;1683375;83;21035;-85
2021/08/24 02:11:59;;;;;;;11.25;8.33;;;;;;;15.41;100.00;101241.17;1678136;83;21034;-86
2021/08/24 02:14:27;;;;;;;22.98;7.53;;;;;;;15.35;100.00;101243.83;1665476;82;21489;-87
2021/08/24 02:16:59;;;;;;;16.95;8.00;;;;;;;15.32;100.00;101240.18;1677561;82;21255;-86
2021/08/24 02:19:39;;;;;;;9.15;7.67;;;;;;;15.31;100.00;101241.14;1705226;82;21006;-87
2021/08/24 02:22:17;;;;;;;;;;;;;;;15.25;100.00;101237.73;1679200;83;21109;-85
2021/08/24 02:24:49;;;;;;;11.18;8.15;;;;;;;15.20;100.00;101236.81;1677393;83;20141;-85
2021/08/24 02:27:21;;;;;;;10.68;7.78;;;;;;;15.15;100.00;101235.04;1667560;82;21868;-86
2021/08/24 02:29:49;;;;;;;11.73;7.72;;;;;;;15.14;100.00;101239.47;1688639;82;21133;-84
2021/08/24 02:32:26;;;;;;;13.95;7.95;;;;;;;15.13;100.00;101238.30;1668431;83;21094;-85
2021/08/24 02:34:58;;;;;;;11.00;7.42;;;;;;;15.13;100.00;101239.61;1681096;83;21046;-85
2021/08/24 02:37:52;;;;;;;15.53;7.22;;;;;;;15.12;100.00;101238.76;1691881;83;23063;-85
2021/08/24 02:40:57;;;;;;;8.65;6.95;;;;;;;15.09;100.00;101240.81;1714761;83;21501;-88
2021/08/24 02:43:44;;;;;;;12.58;6.60;;;;;;;15.04;100.00;101238.58;1694048;83;21045;-87
2021/08/24 02:46:24;;;;;;;11.57;7.62;;;;;;;15.01;100.00;101242.78;1682138;83;21030;-86
2021/08/24 02:48:57;;;;;;;10.60;7.03;;;;;;;15.03;100.00;101242.16;1674444;83;21043;-85
2021/08/24 02:51:26;;;;;;;10.48;6.92;;;;;;;15.02;100.00;101251.47;1689552;83;21515;-87
2021/08/24 02:54:22;;;;;;;8.78;6.55;;;;;;;14.98;100.00;101244.34;1672948;82;21030;-86
2021/08/24 02:56:49;;;;;;;8.80;6.17;;;;;;;14.94;100.00;101242.95;1682380;82;21203;-86
2021/08/24 02:59:16;;;;;;;16.57;7.03;;;;;;;14.87;100.00;101245.25;1670062;83;21692;-85
2021/08/24 03:01:43;;;;;;;12.68;7.08;;;;;;;14.85;100.00;101237.98;1659070;84;21042;-88
2021/08/24 03:04:10;;;;;;;12.53;7.25;;;;;;;14.85;100.00;101238.47;1661499;84;21038;-84
2021/08/24 03:06:47;;;;;;;14.30;7.67;;;;;;;14.89;100.00;101237.24;1676871;83;20960;-84
2021/08/24 03:09:17;;;;;;;9.08;6.80;;;;;;;14.93;100.00;101239.97;1658369;83;21083;-84
2021/08/24 03:11:53;;;;;;;8.53;6.45;;;;;;;14.95;100.00;101239.34;1693514;83;21065;-87
2021/08/24 03:14:29;;;;;;;7.72;6.85;;;;;;;14.94;100.00;101233.28;1681330;83;21030;-86
2021/08/24 03:17:05;;;;;;;7.40;6.50;;;;;;;14.92;100.00;101233.88;1666318;83;21105;-87
2021/08/24 03:19:35;;;;;;;9.00;6.75;;;;;;;14.91;100.00;101236.64;1671537;83;21999;-85
2021/08/24 03:22:05;;;;;;;8.13;7.33;;;;;;;14.89;100.00;101238.55;1671716;83;21170;-84
2021/08/24 03:24:34;;;;;;;9.28;6.75;;;;;;;14.85;100.00;101235.36;1666390;83;21082;-85
2021/08/24 03:27:05;;;;;;;9.23;6.78;;;;;;;14.77;100.00;101240.41;1693423;83;21995;-85
2021/08/24 03:29:32;;;;;;;7.40;6.47;;;;;;;14.69;100.00;101243.69;1666533;83;21738;-87
2021/08/24 03:32:00;;;;;;;12.73;6.37;;;;;;;14.60;100.00;101244.41;1685257;83;22005;-85
2021/08/24 03:34:30;;;;;;;8.40;6.30;;;;;;;14.48;100.00;101240.52;1673603;84;21548;-84
2021/08/24 03:36:59;;;;;;;7.35;6.65;;;;;;;14.41;100.00;101239.35;1696755;83;21045;-84
2021/08/24 03:39:27;;;;;;;14.38;8.58;;;;;;;14.34;100.00;101239.50;1684872;82;21056;-85
2021/08/24 03:41:55;;;;;;;16.87;8.95;;;;;;;14.27;100.00;101239.16;1647346;84;21097;-83
2021/08/24 03:44:22;;;;;;;11.97;8.33;;;;;;;14.24;100.00;101242.50;1658930;84;21180;-85
2021/08/24 03:46:49;;;;;;;12.65;7.92;;;;;;;14.22;100.00;101244.44;1640185;85;21493;-87
2021/08/24 03:49:17;;;;;;;10.03;7.42;;;;;;;14.20;100.00;101241.92;1660277;85;21105;-84
2021/08/24 03:51:45;;;;;;;10.55;7.37;;;;;;;14.20;100.00;101244.55;1657185;84;21033;-87
2021/08/24 03:54:12;;;;;;;10.95;7.37;;;;;;;14.20;100.00;101249.32;1668583;84;21205;-87
2021/08/24 03:56:41;;;;;;;8.30;7.12;;;;;;;14.23;100.00;101247.38;1680615;83;21148;-87
2021/08/24 03:59:10;;;;;;;8.73;7.15;;;;;;;14.24;100.00;101248.59;1678252;83;21090;-84
2021/08/24 04:01:38;;;;;;;11.18;7.08;;;;;;;14.26;100.00;101248.46;1678484;83;21030;-83
2021/08/24 04:04:05;;;;;;;9.93;7.50;;;;;;;14.28;100.00;101253.11;1666614;85;21884;-86
2021/08/24 04:06:32;;;;;;;8.53;7.40;;;;;;;14.32;100.00;101254.50;1658417;83;21577;-86
2021/08/24 04:08:59;;;;;;;14.60;8.55;;;;;;;14.36;100.00;101261.17;1683379;83;21175;-85
2021/08/24 04:14:52;;;;;;;9.83;8.20;;;;;;;14.44;100.00;101261.39;1684505;83;21152;-87
2021/08/24 04:17:18;;;;;;;10.23;7.87;;;;;;;14.44;100.00;101256.14;1714348;83;21085;-91
2021/08/24 04:19:46;;;;;;;9.68;7.95;;;;;;;14.45;100.00;101249.95;1685014;83;21125;-87
2021/08/24 04:22:17;;;;;;;13.50;10.40;;;;;;;14.46;100.00;101246.84;1689104;83;22127;-84
2021/08/24 04:24:45;;;;;;;10.78;9.65;;;;;;;14.50;100.00;101250.89;1692922;83;21058;-86
2021/08/24 04:27:13;;;;;;;10.85;9.58;;;;;;;14.54;100.00;101247.05;1689059;83;21109;-84
2021/08/24 04:29:40;;;;;;;13.15;9.88;;;;;;;14.61;100.00;101244.77;1669438;84;21564;-86
2021/08/24 04:32:08;;;;;;;11.68;9.73;;;;;;;14.67;100.00;101243.79;1672520;83;21390;-86
2021/08/24 04:34:35;;;;;;;9.50;8.48;;;;;;;14.74;100.00;101248.05;1662134;84;22197;-86
2021/08/24 04:37:02;;;;;;;10.75;8.80;;;;;;;14.81;100.00;101247.89;1687011;83;21018;-85
2021/08/24 04:39:30;;;;;;;10.63;8.20;;;;;;;14.89;100.00;101248.58;1670746;83;21057;-87
2021/08/24 04:41:57;;;;;;;10.23;7.83;;;;;;;14.96;100.00;101251.50;1670126;84;21665;-87
2021/08/24 04:44:24;;;;;;;10.70;7.62;;;;;;;15.03;100.00;101248.71;1693291;83;21533;-84
2021/08/24 04:46:51;;;;;;;9.80;7.67;;;;;;;15.11;100.00;101248.89;1669492;83;21039;-84
2021/08/24 04:49:19;;;;;;;8.40;7.47;;;;;;;15.20;100.00;101248.61;1679336;83;21078;-87
2021/08/24 04:51:46;;;;;;;8.95;7.45;;;;;;;15.28;100.00;101250.11;1695383;83;21028;-85
2021/08/24 04:54:13;;;;;;;9.15;7.53;;;;;;;15.37;100.00;101252.41;1688951;83;21010;-84
2021/08/24 04:56:40;;;;;;;11.38;8.10;;;;;;;15.46;100.00;101250.81;1697534;84;21589;-84
2021/08/24 04:59:07;;;;;;;10.53;8.03;;;;;;;15.55;100.00;101249.99;1673010;83;21093;-84
2021/08/24 05:01:34;;;;;;;8.50;6.90;;;;;;;15.63;100.00;101249.34;1665815;83;21200;-85
2021/08/24 05:04:03;;;;;;;8.58;7.28;;;;;;;15.72;100.00;101248.55;1662775;83;21047;-86
2021/08/24 05:06:31;;;;;;;10.50;7.65;;;;;;;15.82;100.00;101251.20;1694914;83;21047;-84
2021/08/24 05:08:58;;;;;;;12.07;7.75;;;;;;;15.90;100.00;101254.51;1661309;83;20983;-86
2021/08/24 05:11:26;;;;;;;12.30;9.13;;;;;;;15.99;100.00;101249.73;1671260;83;21898;-85
2021/08/24 05:13:52;;;;;;;8.03;7.08;;;;;;;16.08;100.00;101250.23;1666294;83;21123;-84
2021/08/24 05:16:20;;;;;;;8.70;6.35;;;;;;;16.18;100.00;101242.85;1679204;83;21116;-86
2021/08/24 05:18:47;;;;;;;7.50;6.22;;;;;;;16.26;100.00;101245.62;1654996;84;21006;-85
2021/08/24 05:21:15;;;;;;;7.03;6.15;;;;;;;16.35;100.00;101238.23;1655563;84;21473;-84
2021/08/24 05:23:43;;;;;;;13.58;6.40;;;;;;;16.45;100.00;101247.92;1693742;83;20947;-85
2021/08/24 05:26:14;;;;;;;7.97;5.72;;;;;;;16.54;100.00;101249.73;1693415;81;21251;-85
2021/08/24 05:28:41;;;;;;;8.88;6.30;;;;;;;16.60;100.00;101245.69;1665706;83;21061;-85
2021/08/24 05:31:20;;;;;;;9.75;6.15;;;;;;;16.68;100.00;101247.98;1665181;84;21589;-86
2021/08/24 05:33:47;;;;;;;12.25;6.42;;;;;;;16.75;100.00;101252.17;1671842;83;21048;-84
2021/08/24 05:36:15;;;;;;;10.98;6.17;;;;;;;16.84;100.00;101261.04;1687724;84;21184;-86
2021/08/24 05:38:42;;;;;;;7.83;5.78;;;;;;;16.92;100.00;101256.38;1693946;81;21132;-84
2021/08/24 05:41:09;;;;;;;9.53;6.47;;;;;;;17.00;100.00;101257.84;1692511;83;21019;-84
2021/08/24 05:43:36;;;;;;;10.15;6.87;;;;;;;17.09;100.00;101260.13;1684206;83;20987;-83
2021/08/24 05:46:07;;;;;;;9.80;7.58;;;;;;;17.18;100.00;101258.77;1690562;83;21061;-85
2021/08/24 05:48:36;;;;;;;10.30;8.08;;;;;;;17.28;100.00;101260.05;1689241;83;21192;-87
2021/08/24 05:51:17;;;;;;;12.37;9.18;;;;;;;17.40;100.00;101258.56;1702912;84;21015;-87
2021/08/24 05:53:45;;;;;;;15.72;9.55;;;;;;;17.49;100.00;101257.70;1698701;83;21142;-85
2021/08/24 05:56:17;;;;;;;12.10;9.43;;;;;;;17.60;100.00;101260.13;1679901;83;21319;-85
2021/08/24 05:58:45;;;;;;;9.40;8.13;;;;;;;17.72;100.00;101258.13;1658971;83;20963;-85
2021/08/24 06:01:29;;;;;;;9.40;7.30;;;;;;;17.81;100.00;101256.44;1669839;83;22333;-88
2021/08/24 06:03:58;;;;;;;8.98;6.85;;;;;;;17.89;100.00;101252.58;1642138;85;21112;-85
2021/08/24 06:06:33;;;;;;;10.25;6.70;;;;;;;17.98;100.00;101252.20;1660452;84;21054;-90
2021/08/24 06:09:05;;;;;;;8.90;6.22;;;;;;;18.06;100.00;101243.56;1654898;85;21529;-89
2021/08/24 06:11:50;;;;;;;11.10;6.72;;;;;;;18.14;100.00;101239.69;1671692;84;20959;-91
2021/08/24 06:14:37;;;;;;;8.98;6.12;;;;;;;18.26;100.00;101243.75;1662867;82;21057;-88
2021/08/24 06:17:32;;;;;;;;;;;;;;;;;;;;;
2021/08/24 06:20:17;;;;;;;;;;;;;;;;;;;;;
2021/08/24 06:22:45;;;;;;;6.53;5.87;;;;;;;18.64;100.00;101231.70;1454223;93;21648;-89
2021/08/24 06:26:05;;;;;;;;;;;;;;;;;;;;;
2021/08/24 06:32:37;;;;;;;5.70;5.00;;;;;;;19.06;100.00;101246.02;1451580;92;20665;-91
2021/08/24 06:35:38;;;;;;;5.35;4.47;;;;;;;19.20;100.00;101240.66;1486530;93;21168;-88
2021/08/24 06:38:20;;;;;;;6.17;4.87;;;;;;;19.34;100.00;101244.53;1441275;96;21206;-90
2021/08/24 06:40:48;;;;;;;11.93;4.95;;;;;;;19.50;100.00;101243.76;1568946;88;21185;-88
2021/08/24 06:50:04;;;;;;;;;;;;;;;;;;;;;
2021/08/24 06:52:28;;;;;;;21.07;5.17;;;;;;;20.13;100.00;101254.39;1394381;96;21141;-85
2021/08/24 06:54:55;;;;;;;8.93;4.72;;;;;;;20.27;100.00;101249.44;1509149;93;21582;-86
2021/08/24 06:57:22;;;;;;;5.42;3.87;;;;;;;20.42;100.00;101252.27;1541766;85;21006;-85
2021/08/24 06:59:50;;;;;;;5.80;3.80;;;;;;;20.55;100.00;101245.97;1625283;87;21090;-85
2021/08/24 07:02:17;;;;;;;6.08;4.05;;;;;;;20.70;96.33;101256.72;1667832;85;21525;-84
2021/08/24 07:04:48;;;;;;;9.38;4.15;;;;;;;20.85;100.00;101250.78;1667100;83;21285;-85
2021/08/24 07:07:18;;;;;;;5.45;3.67;;;;;;;20.96;94.68;101253.05;1666927;83;21116;-85
2021/08/24 07:09:46;;;;;;;4.30;3.83;;;;;;;21.10;90.56;101259.48;1642155;83;21856;-87
2021/08/24 07:12:13;;;;;;;7.83;4.05;;;;;;;21.24;86.39;101257.97;1672740;83;21034;-87
2021/08/24 07:14:40;;;;;;;6.85;4.00;;;;;;;21.36;79.69;101264.53;1707135;82;21022;-87
2021/08/24 07:17:08;;;;;;;11.25;4.20;;;;;;;21.52;81.56;101262.81;1662904;83;21565;-86
2021/08/24 07:19:35;;;;;;;7.20;3.65;;;;;;;21.67;86.46;101265.09;1678288;84;21018;-87
2021/08/24 07:22:03;;;;;;;5.08;3.75;;;;;;;21.79;74.63;101262.07;1685212;83;21799;-89
2021/08/24 07:24:30;;;;;;;7.42;3.72;;;;;;;21.89;74.11;101259.52;1662397;83;21161;-86
2021/08/24 07:26:59;;;;;;;6.60;3.55;;;;;;;22.05;73.82;101253.79;1695033;83;21051;-88
2021/08/24 07:29:27;;;;;;;6.83;3.60;;;;;;;22.20;71.06;101248.56;1670274;83;21122;-90
2021/08/24 07:31:54;;;;;;;6.37;3.05;;;;;;;22.35;68.22;101248.62;1672724;83;21102;-88
2021/08/24 07:34:21;;;;;;;4.83;2.85;;;;;;;22.50;62.77;101240.72;1672124;84;21062;-89
2021/08/24 07:36:47;;;;;;;5.65;2.87;;;;;;;22.63;59.44;101241.44;1670073;83;21094;-86
2021/08/24 07:39:14;;;;;;;7.67;3.10;;;;;;;22.72;58.31;101239.03;1657863;83;21653;-87
2021/08/24 07:41:48;;;;;;;4.37;2.67;;;;;;;22.81;55.53;101235.78;1667685;83;21077;-90
2021/08/24 07:44:15;;;;;;;4.25;3.60;;;;;;;22.92;54.69;101234.02;1668664;83;21011;-88
2021/08/24 07:46:44;;;;;;;4.90;3.77;;;;;;;23.05;56.05;101237.86;1664972;83;21131;-85
2021/08/24 07:49:14;;;;;;;4.45;3.05;;;;;;;23.17;57.41;101231.09;1667326;83;20998;-88
2021/08/24 07:51:41;;;;;;;5.87;3.17;;;;;;;23.28;55.18;101233.30;1650902;83;21104;-86
2021/08/24 07:54:08;;;;;;;13.60;3.90;;;;;;;23.41;55.30;101233.98;1682379;83;21059;-88
2021/08/24 07:56:36;;;;;;;5.37;3.95;;;;;;;23.53;56.31;101227.67;1669028;83;21110;-85
2021/08/24 07:59:06;;;;;;;4.25;3.25;;;;;;;23.68;57.40;101233.45;1678773;83;21150;-90
2021/08/24 08:01:33;;;;;;;5.92;3.92;;;;;;;23.78;56.31;101224.69;1651175;85;20999;-87
2021/08/24 08:04:01;;;;;;;4.65;3.10;;;;;;;23.90;54.49;101229.84;1682314;83;21596;-86
2021/08/24 08:06:28;;;;;;;4.53;3.25;;;;;;;24.01;49.90;101227.22;1680004;83;21087;-87
2021/08/24 08:08:55;;;;;;;8.48;3.00;;;;;;;24.11;50.95;101221.56;1695038;83;21668;-88
2021/08/24 08:11:22;;;;;;;4.42;2.58;;;;;;;24.23;49.96;101228.53;1692051;83;21798;-86
2021/08/24 08:13:51;;;;;;;3.67;2.30;;;;;;;24.36;50.20;101227.30;1692843;84;20969;-85
2021/08/24 08:16:20;;;;;;;4.10;2.70;;;;;;;24.48;49.16;101223.61;1687649;83;20975;-88
2021/08/24 08:18:50;;;;;;;3.50;2.77;;;;;;;24.61;47.12;101228.73;1679668;83;21512;-89
2021/08/24 08:21:18;;;;;;;3.45;2.55;;;;;;;24.69;46.19;101223.30;1650059;84;21144;-90
2021/08/24 08:23:47;;;;;;;3.83;2.70;;;;;;;24.79;47.61;101221.11;1660777;83;21256;-89
2021/08/24 08:26:15;;;;;;;4.50;2.50;;;;;;;24.87;46.93;101220.96;1703777;83;21128;-89
2021/08/24 08:28:43;;;;;;;4.60;2.60;;;;;;;24.96;46.22;101217.62;1632728;84;21082;-88
2021/08/24 08:31:13;;;;;;;3.45;2.50;;;;;;;25.06;46.75;101223.10;1674762;83;21101;-88
2021/08/24 08:33:41;;;;;;;3.33;2.40;;;;;;;25.15;46.70;101226.73;1677171;84;21133;-87
2021/08/24 08:36:09;;;;;;;4.72;2.33;;;;;;;25.27;46.38;101226.98;1669078;83;21061;-89
2021/08/24 08:38:36;;;;;;;4.55;2.20;;;;;;;25.35;43.85;101224.68;1663787;83;21613;-89
2021/08/24 08:41:33;;;;;;;2.95;2.65;;;;;;;25.41;44.06;101213.25;1673874;83;21604;-88
2021/08/24 08:44:04;;;;;;;3.80;2.58;;;;;;;25.49;43.81;101221.06;1605768;88;21566;-86
2021/08/24 08:47:18;;;;;;;4.53;2.55;;;;;;;25.59;41.71;101218.53;1670864;84;21026;-86
2021/08/24 08:49:59;;;;;;;4.87;2.62;;;;;;;25.65;41.37;101209.20;1681499;83;21065;-90
2021/08/24 08:53:05;;;;;;;4.03;2.52;;;;;;;25.74;42.66;101213.02;1638250;83;21071;-86
2021/08/24 08:56:04;;;;;;;3.58;2.58;;;;;;;25.82;43.29;101206.16;1649975;85;21728;-91
2021/08/24 08:58:50;;;;;;;2.80;2.52;;;;;;;25.94;42.38;101210.38;1651684;84;21244;-90
2021/08/24 09:01:37;;;;;;;4.03;2.70;;;;;;;25.99;40.17;101206.61;1656301;84;21089;-88
2021/08/24 09:04:38;;;;;;;5.22;2.70;;;;;;;26.02;40.17;101203.52;1603664;84;21084;-87
2021/08/24 09:07:27;;;;;;;4.15;2.72;;;;;;;26.08;39.99;101203.25;1589023;88;21577;-89
2021/08/24 09:09:58;;;;;;;2.70;2.47;;;;;;;26.11;39.07;101199.66;1617643;87;21148;-88
2021/08/24 09:12:31;;;;;;;2.92;2.40;;;;;;;26.14;39.78;101195.27;1624662;85;21108;-88
2021/08/24 09:15:01;;;;;;;4.25;2.50;;;;;;;26.20;43.11;101188.78;1655543;85;21551;-87
2021/08/24 09:17:40;;;;;;;6.12;2.72;;;;;;;26.28;42.05;101192.05;1637495;85;21105;-87
2021/08/24 09:20:35;;;;;;;3.35;2.40;;;;;;;26.41;41.61;101193.09;1645366;84;21090;-89
2021/08/24 09:23:02;;;;;;;;;;;;;;;26.50;38.10;101185.17;1665097;85;21079;-87
2021/08/24 09:25:45;;;;;;;6.50;2.95;;;;;;;26.57;36.77;101186.48;1660959;85;20671;-86
2021/08/24 09:28:26;;;;;;;5.95;2.42;;;;;;;26.59;36.71;101184.42;1650155;84;21603;-88
2021/08/24 09:30:54;;;;;;;2.83;2.30;;;;;;;26.61;37.12;101187.19;1639936;85;21112;-89
2021/08/24 09:33:28;;;;;;;3.37;2.58;;;;;;;26.68;37.92;101189.86;1658351;85;21081;-87
2021/08/24 09:35:56;;;;;;;4.28;2.30;;;;;;;26.74;37.57;101184.20;1635253;84;21169;-88
2021/08/24 09:38:36;;;;;;;3.90;2.87;;;;;;;26.80;36.17;101173.23;1622828;85;21022;-92
2021/08/24 09:41:25;;;;;;;4.20;2.50;;;;;;;26.80;36.20;101168.70;1633032;86;21090;-88
2021/08/24 09:43:56;;;;;;;4.12;2.30;;;;;;;26.85;39.83;101171.55;1663616;85;21895;-85
2021/08/24 09:46:32;;;;;;;3.08;2.55;;;;;;;26.97;39.75;101170.91;1636415;85;21038;-86
2021/08/24 09:49:23;;;;;;;5.08;2.70;;;;;;;27.03;38.90;101174.06;1660726;85;21085;-89
2021/08/24 09:52:01;;;;;;;3.27;2.90;;;;;;;27.11;37.52;101170.34;1671422;84;21124;-88
2021/08/24 09:54:36;;;;;;;4.47;3.00;;;;;;;27.21;38.43;101166.67;1678099;84;20970;-87
2021/08/24 09:57:11;;;;;;;3.20;2.60;;;;;;;27.31;36.85;101166.23;1648849;84;21109;-89
2021/08/24 09:59:48;;;;;;;2.95;2.65;;;;;;;27.34;36.85;101162.62;1672365;83;21080;-87
2021/08/24 10:02:43;;;;;;;3.58;2.60;;;;;;;27.42;37.97;101164.73;1648965;84;21119;-88
2021/08/24 10:05:22;;;;;;;5.70;3.10;;;;;;;27.49;36.75;101165.55;1672451;83;21516;-87
2021/08/24 10:07:57;;;;;;;3.33;2.58;;;;;;;27.54;37.65;101166.55;1686333;83;21022;-88
2021/08/24 10:10:38;;;;;;;2.55;2.35;;;;;;;27.59;35.66;101158.38;1676857;84;21118;-88
2021/08/24 10:13:36;;;;;;;3.13;2.80;;;;;;;27.62;37.65;101165.45;1677083;84;21095;-87
2021/08/24 10:16:29;;;;;;;5.80;2.65;;;;;;;27.68;36.60;101158.42;1641984;83;21093;-86
2021/08/24 10:19:13;;;;;;;3.17;2.87;;;;;;;27.70;34.68;101152.34;1697991;83;21180;-88
2021/08/24 10:21:56;;;;;;;5.03;2.87;;;;;;;27.75;35.83;101146.35;1673229;82;21129;-89
2021/08/24 10:24:37;;;;;;;5.30;2.83;;;;;;;27.77;34.62;101146.92;1687613;83;21165;-88
2021/08/24 10:27:28;;;;;;;5.45;3.02;;;;;;;27.76;37.72;101145.31;1667903;84;21022;-88
2021/08/24 10:30:00;;;;;;;2.72;2.50;;;;;;;27.82;35.13;101150.59;1631250;86;21008;-87
2021/08/24 10:32:34;;;;;;;2.75;2.52;;;;;;;27.83;35.49;101149.56;1632123;85;21112;-87
2021/08/24 10:35:13;;;;;;;3.20;2.58;;;;;;;27.84;36.21;101153.08;1619818;85;21030;-89
2021/08/24 10:37:47;;;;;;;2.70;2.42;;;;;;;27.85;35.29;101150.17;1639370;84;21826;-89
2021/08/24 10:40:27;;;;;;;4.22;3.42;;;;;;;27.88;36.17;101148.91;1683841;83;21236;-87
2021/08/24 10:43:20;;;;;;;3.62;3.33;;;;;;;27.86;37.20;101145.63;1678419;82;21069;-88
2021/08/24 10:46:16;;;;;;;3.70;3.40;;;;;;;27.86;37.77;101139.77;1664677;84;21237;-88
2021/08/24 10:48:44;;;;;;;4.25;3.45;;;;;;;27.90;38.11;101137.48;1664379;83;21054;-87
2021/08/24 10:51:23;;;;;;;3.62;3.30;;;;;;;27.96;38.40;101137.12;1669151;83;21119;-87
2021/08/24 10:54:07;;;;;;;4.58;4.00;;;;;;;28.04;38.48;101139.53;1689273;83;21066;-89
2021/08/24 10:56:48;;;;;;;5.92;3.72;;;;;;;28.15;38.30;101138.02;1668043;84;21050;-89
2021/08/24 11:00:01;;;;;;;7.15;4.00;;;;;;;28.26;36.60;101137.28;1696972;84;21131;-88
2021/08/24 11:02:42;;;;;;;4.03;3.62;;;;;;;28.32;39.26;101135.05;1658994;84;21085;-89
2021/08/24 11:05:50;;;;;;;4.12;3.52;;;;;;;28.40;36.58;101133.95;1658930;83;21114;-89
2021/08/24 11:08:36;;;;;;;5.87;3.40;;;;;;;28.50;38.27;101128.08;1663086;83;21558;-87
2021/08/24 11:11:25;;;;;;;5.65;3.67;;;;;;;28.55;38.51;101126.91;1689230;83;21081;-89
2021/08/24 11:14:10;;;;;;;4.80;3.42;;;;;;;28.55;36.89;101125.56;1645654;84;21078;-90
2021/08/24 11:16:57;;;;;;;5.58;3.62;;;;;;;28.57;36.71;101116.77;1622650;84;21656;-87
2021/08/24 11:19:48;;;;;;;3.85;3.47;;;;;;;28.61;37.59;101116.62;1653417;84;21111;-87
2021/08/24 11:22:37;;;;;;;6.97;3.90;;;;;;;28.68;36.32;101113.88;1650537;86;21065;-86
2021/08/24 11:25:37;;;;;;;8.85;4.15;;;;;;;28.78;37.16;101110.16;1649648;84;22007;-88
2021/08/24 11:28:35;;;;;;;3.60;3.30;;;;;;;28.86;38.09;101109.05;1684300;82;48030;-88
2021/08/24 11:31:25;;;;;;;3.83;3.52;;;;;;;28.92;35.05;101104.66;1690051;81;21109;-87
2021/08/24 11:34:06;;;;;;;5.25;3.98;;;;;;;28.90;36.22;101102.17;1653982;84;21102;-88
2021/08/24 11:36:51;;;;;;;7.78;4.40;;;;;;;28.86;36.85;101101.01;1692701;82;21129;-87
2021/08/24 11:39:29;;;;;;;4.62;4.08;;;;;;;28.84;35.10;101100.41;1665307;85;21113;-88
2021/08/24 11:42:01;;;;;;;4.92;4.00;;;;;;;28.76;33.66;101099.38;1660477;85;21540;-87
2021/08/24 11:44:40;;;;;;;5.30;3.90;;;;;;;28.68;34.27;101102.33;1660639;83;21072;-89
2021/08/24 11:47:12;;;;;;;4.47;4.00;;;;;;;28.56;34.97;101091.55;1656565;83;21637;-89
2021/08/24 11:50:10;;;;;;;5.10;4.00;;;;;;;28.51;37.18;101089.55;1633862;86;21108;-89
2021/08/24 11:53:02;;;;;;;3.67;3.37;;;;;;;28.49;37.99;101090.28;1614567;86;21090;-87
2021/08/24 11:55:35;;;;;;;4.80;3.85;;;;;;;28.47;37.83;101089.17;1602145;85;21153;-87
2021/08/24 11:58:21;;;;;;;6.30;4.30;;;;;;;28.30;37.13;101088.13;1658844;84;21120;-88
2021/08/24 12:00:55;;;;;;;7.20;4.10;;;;;;;28.11;37.67;101083.28;1667359;83;21105;-87
2021/08/24 12:03:23;;;;;;;5.10;4.17;;;;;;;27.96;36.81;101079.06;1664543;84;21023;-89
2021/08/24 12:06:14;;;;;;;6.15;3.75;;;;;;;27.91;38.03;101078.92;1694019;83;21038;-88
2021/08/24 12:08:48;;;;;;;6.65;4.10;;;;;;;28.00;39.73;101079.44;1676770;84;21096;-88
2021/08/24 12:11:23;;;;;;;6.17;4.60;;;;;;;28.13;39.46;101072.64;1690245;83;21027;-86
2021/08/24 12:13:54;;;;;;;6.33;3.58;;;;;;;28.29;38.93;101071.76;1647654;85;21086;-89